Time;durP1;ratioP1;P1;durP2;ratioP2;P2;SDS_P1;SDS_P2;PMS_P1;PMS_P2;Temp;Humidity;BMP_temperature;BMP_pressure;BME280_temperature;BME280_humidity;BME280_pressure;Samples;Min_cycle;Max_cycle;Signal;HPM_P1;HPM_P2
2022/07/12 00:00:33;;;;;;;5.27;4.60;;;19.90;88.20;;;;;;10522538;28;20228;-79
2022/07/12 00:05:35;;;;;;;5.20;4.80;;;19.80;88.20;;;;;;10529001;28;20219;-81
2022/07/12 00:10:39;;;;;;;4.57;4.37;;;19.70;88.50;;;;;;10527932;28;20274;-79
2022/07/12 00:15:41;;;;;;;5.10;4.80;;;19.60;89.50;;;;;;10530526;28;20304;-79
2022/07/12 00:20:43;;;;;;;5.20;4.90;;;19.60;89.20;;;;;;10524044;28;20549;-79
2022/07/12 00:25:46;;;;;;;7.53;5.23;;;19.60;89.50;;;;;;10520080;28;20220;-82
2022/07/12 00:30:48;;;;;;;4.50;4.20;;;19.50;89.40;;;;;;10527507;28;20310;-81
2022/07/12 00:35:51;;;;;;;5.10;4.60;;;19.50;89.60;;;;;;10536480;28;20613;-81
2022/07/12 00:40:54;;;;;;;4.47;4.07;;;19.40;89.70;;;;;;10544360;28;20223;-80
2022/07/12 00:45:56;;;;;;;4.97;4.20;;;19.40;90.20;;;;;;10529125;28;20235;-80
2022/07/12 00:50:59;;;;;;;3.90;3.70;;;19.40;90.20;;;;;;10530729;28;20269;-80
2022/07/12 00:56:02;;;;;;;3.60;3.40;;;19.40;90.40;;;;;;10538196;28;20251;-80
2022/07/12 01:01:04;;;;;;;8.90;3.70;;;19.40;90.00;;;;;;10535506;28;20659;-80
2022/07/12 01:06:08;;;;;;;4.00;3.80;;;19.40;90.20;;;;;;10525922;28;20224;-80
2022/07/12 01:11:12;;;;;;;4.20;3.90;;;19.40;90.00;;;;;;10529561;28;20307;-79
2022/07/12 01:16:15;;;;;;;4.63;4.30;;;19.40;90.10;;;;;;10532084;28;20219;-81
2022/07/12 01:21:20;;;;;;;3.80;3.50;;;19.40;90.30;;;;;;10521192;28;20224;-79
2022/07/12 01:26:24;;;;;;;4.30;4.03;;;19.50;90.30;;;;;;10515985;28;20729;-79
2022/07/12 01:31:26;;;;;;;4.20;3.90;;;19.50;90.00;;;;;;10510499;28;20195;-81
2022/07/12 01:36:28;;;;;;;4.37;4.07;;;19.40;90.20;;;;;;10530366;28;20227;-80
2022/07/12 01:41:32;;;;;;;3.93;3.73;;;19.40;90.20;;;;;;10523835;28;20314;-79
2022/07/12 01:46:35;;;;;;;4.17;3.87;;;19.30;90.30;;;;;;10530937;28;20599;-79
2022/07/12 01:51:37;;;;;;;3.50;3.30;;;19.30;90.50;;;;;;10534693;28;20727;-79
2022/07/12 01:56:40;;;;;;;3.50;3.30;;;19.20;90.30;;;;;;10515163;28;20302;-78
2022/07/12 02:01:44;;;;;;;3.20;2.87;;;19.20;90.50;;;;;;10530523;28;20216;-81
2022/07/12 02:06:46;;;;;;;3.50;3.30;;;19.10;90.80;;;;;;10528413;28;20696;-79
2022/07/12 02:11:50;;;;;;;2.77;2.67;;;19.10;90.80;;;;;;10531717;28;20873;-78
2022/07/12 02:16:52;;;;;;;2.97;2.87;;;19.00;90.70;;;;;;10529867;28;20648;-79
2022/07/12 02:21:54;;;;;;;2.80;2.70;;;19.00;90.10;;;;;;10528110;28;20215;-78
2022/07/12 02:26:58;;;;;;;2.93;2.83;;;19.00;90.40;;;;;;10521888;28;20216;-79
2022/07/12 02:32:02;;;;;;;3.20;3.07;;;18.90;90.70;;;;;;10534247;28;20729;-79
2022/07/12 02:37:04;;;;;;;2.90;2.70;;;18.90;90.90;;;;;;10535990;28;20377;-78
2022/07/12 02:42:08;;;;;;;2.70;2.60;;;18.80;90.50;;;;;;10528557;28;20220;-79
2022/07/12 02:47:10;;;;;;;3.83;3.47;;;18.80;91.00;;;;;;10532456;28;20224;-80
2022/07/12 02:52:12;;;;;;;2.83;2.70;;;18.70;90.80;;;;;;10539857;28;20223;-81
2022/07/12 02:57:15;;;;;;;2.50;2.40;;;18.70;90.30;;;;;;10525270;28;20222;-80
2022/07/12 03:02:17;;;;;;;3.03;2.60;;;18.70;90.50;;;;;;10534762;28;20284;-79
2022/07/12 03:07:19;;;;;;;3.20;3.00;;;18.60;90.70;;;;;;10534482;28;20722;-79
2022/07/12 03:12:23;;;;;;;2.83;2.73;;;18.50;90.60;;;;;;10529678;28;20577;-79
2022/07/12 03:17:25;;;;;;;3.13;2.93;;;18.50;91.10;;;;;;10532324;28;20739;-79
2022/07/12 03:22:27;;;;;;;3.23;3.03;;;18.40;90.80;;;;;;10535006;28;20293;-82
2022/07/12 03:27:31;;;;;;;2.77;2.67;;;18.40;91.10;;;;;;10541768;28;20258;-82
2022/07/12 03:32:33;;;;;;;3.30;2.70;;;18.40;91.20;;;;;;10541680;28;20188;-81
2022/07/12 03:37:43;;;;;;;2.83;2.73;;;18.40;91.30;;;;;;10533858;28;20250;-81
2022/07/12 03:42:47;;;;;;;2.73;2.63;;;18.40;91.40;;;;;;10537868;28;20269;-81
2022/07/12 03:47:50;;;;;;;3.00;2.80;;;18.50;90.90;;;;;;10540512;28;20223;-81
2022/07/12 03:52:52;;;;;;;2.90;2.70;;;18.50;90.80;;;;;;10542457;28;20203;-81
2022/07/12 03:57:55;;;;;;;2.90;2.70;;;18.50;90.80;;;;;;10545105;28;20328;-82
2022/07/12 04:02:57;;;;;;;2.90;2.80;;;18.40;91.10;;;;;;10545451;28;20220;-81
2022/07/12 04:08:01;;;;;;;3.40;3.20;;;18.40;91.40;;;;;;10535028;28;20307;-80
2022/07/12 04:13:05;;;;;;;3.93;3.00;;;18.30;91.60;;;;;;10536374;28;20264;-82
2022/07/12 04:18:07;;;;;;;3.40;3.20;;;18.40;91.80;;;;;;10538509;28;20730;-82
2022/07/12 04:23:09;;;;;;;3.90;3.60;;;18.40;91.90;;;;;;10539781;28;20687;-81
2022/07/12 04:28:12;;;;;;;5.07;4.77;;;18.50;91.80;;;;;;10543892;28;20212;-81
2022/07/12 04:33:14;;;;;;;4.73;4.33;;;18.50;91.70;;;;;;10539937;28;20204;-80
2022/07/12 04:38:17;;;;;;;4.63;4.23;;;18.50;91.90;;;;;;10529610;28;20220;-81
2022/07/12 04:43:21;;;;;;;4.73;4.43;;;18.50;91.90;;;;;;10539221;28;20327;-82
2022/07/12 04:48:23;;;;;;;5.73;5.33;;;18.60;92.00;;;;;;10535511;28;20326;-81
2022/07/12 04:53:25;;;;;;;6.00;5.60;;;18.60;92.40;;;;;;10540934;28;20199;-81
2022/07/12 04:58:28;;;;;;;7.97;7.37;;;18.60;92.30;;;;;;10543400;28;20230;-81
2022/07/12 05:03:30;;;;;;;6.17;5.77;;;18.60;92.40;;;;;;10531159;28;20204;-81
2022/07/12 05:08:33;;;;;;;5.80;5.30;;;18.70;93.00;;;;;;10533420;28;20226;-79
2022/07/12 05:13:36;;;;;;;5.10;4.80;;;18.70;92.80;;;;;;10506235;28;20290;-80
2022/07/12 05:18:38;;;;;;;6.17;5.57;;;18.70;93.10;;;;;;10511002;28;20218;-80
2022/07/12 05:23:40;;;;;;;5.90;5.40;;;18.70;93.20;;;;;;10502233;28;20228;-79
2022/07/12 05:28:44;;;;;;;6.73;6.03;;;18.70;93.00;;;;;;10507398;28;20578;-79
2022/07/12 05:33:46;;;;;;;6.20;5.80;;;18.70;92.90;;;;;;10529137;28;20219;-80
2022/07/12 05:38:48;;;;;;;6.40;5.90;;;18.80;92.60;;;;;;10522465;28;20275;-80
2022/07/12 05:43:52;;;;;;;6.50;5.90;;;18.80;92.70;;;;;;10535092;28;20245;-80
2022/07/12 05:48:54;;;;;;;5.90;5.50;;;18.80;92.80;;;;;;10535566;28;20211;-81
2022/07/12 05:53:56;;;;;;;6.00;5.57;;;18.90;92.80;;;;;;10539735;28;20266;-80
2022/07/12 05:59:00;;;;;;;8.30;5.47;;;18.90;93.10;;;;;;10542691;28;20208;-80
2022/07/12 06:04:02;;;;;;;6.20;5.70;;;19.00;93.20;;;;;;10549000;28;20220;-80
2022/07/12 06:09:04;;;;;;;5.67;5.27;;;19.10;93.00;;;;;;10542335;28;20282;-81
2022/07/12 06:14:08;;;;;;;6.30;5.70;;;19.10;93.20;;;;;;10544903;28;20217;-81
2022/07/12 06:19:10;;;;;;;4.20;3.80;;;19.20;93.30;;;;;;10545794;28;20220;-80
2022/07/12 06:24:12;;;;;;;4.73;4.33;;;19.30;92.80;;;;;;10546694;28;20222;-77
2022/07/12 06:29:15;;;;;;;5.07;4.57;;;19.40;91.80;;;;;;10539414;28;20219;-79
2022/07/12 06:34:17;;;;;;;4.80;4.30;;;19.50;91.00;;;;;;10539630;28;20299;-79
2022/07/12 06:39:20;;;;;;;4.53;4.23;;;19.60;90.80;;;;;;10541050;28;20288;-80
2022/07/12 06:44:23;;;;;;;4.43;4.03;;;19.80;91.50;;;;;;10542397;28;20311;-79
2022/07/12 06:49:25;;;;;;;4.97;4.57;;;20.00;90.70;;;;;;10525829;28;20200;-79
2022/07/12 06:54:27;;;;;;;4.17;3.90;;;20.20;90.90;;;;;;10540162;28;20255;-82
2022/07/12 06:59:31;;;;;;;3.70;3.40;;;20.50;90.10;;;;;;10543096;28;20243;-82
2022/07/12 07:04:33;;;;;;;3.63;3.43;;;20.70;88.50;;;;;;10543922;28;20251;-81
2022/07/12 07:09:35;;;;;;;3.47;3.27;;;21.00;87.10;;;;;;10537824;28;20197;-82
2022/07/12 07:14:38;;;;;;;4.60;4.20;;;21.20;85.70;;;;;;10534297;28;20216;-81
2022/07/12 07:19:40;;;;;;;2.70;2.60;;;21.40;86.40;;;;;;10536758;28;20224;-81
2022/07/12 07:24:42;;;;;;;3.07;2.87;;;21.60;84.00;;;;;;10544001;28;20295;-80
2022/07/12 07:35:09;;;;;;;2.67;2.33;;;22.00;82.80;;;;;;10529245;28;20299;-81
2022/07/12 07:40:11;;;;;;;2.53;2.43;;;22.30;80.70;;;;;;10542432;28;20235;-81
2022/07/12 07:45:14;;;;;;;2.03;1.93;;;22.50;80.40;;;;;;10543047;28;20224;-80
2022/07/12 07:50:17;;;;;;;2.23;2.13;;;22.80;78.10;;;;;;10539975;28;20197;-81
2022/07/12 07:55:19;;;;;;;3.50;2.10;;;23.00;78.60;;;;;;10539909;28;20213;-81
2022/07/12 08:00:23;;;;;;;2.30;2.20;;;23.40;77.30;;;;;;10539781;28;20262;-79
2022/07/12 08:05:25;;;;;;;2.27;2.17;;;23.80;77.30;;;;;;10513608;28;20289;-79
2022/07/12 08:10:27;;;;;;;1.77;1.67;;;24.10;74.90;;;;;;10509815;28;20192;-79
2022/07/12 08:15:31;;;;;;;2.13;2.00;;;24.40;74.20;;;;;;10506568;28;20277;-79
2022/07/12 08:20:34;;;;;;;1.90;1.80;;;24.60;72.80;;;;;;10507023;28;20217;-78
2022/07/12 08:25:36;;;;;;;1.50;1.50;;;24.70;72.50;;;;;;10508057;28;20208;-79
2022/07/12 08:30:39;;;;;;;1.97;1.87;;;25.00;71.30;;;;;;10512161;28;20223;-79
2022/07/12 08:35:42;;;;;;;1.50;1.50;;;25.30;70.80;;;;;;10508291;28;20269;-81
2022/07/12 08:40:44;;;;;;;1.60;1.53;;;25.70;67.50;;;;;;10508636;28;20548;-79
2022/07/12 08:45:48;;;;;;;1.50;1.50;;;26.10;65.20;;;;;;10512758;28;20897;-79
2022/07/12 08:51:02;;;;;;;1.60;1.50;;;26.60;66.80;;;;;;10509073;28;20539;-81
2022/07/12 08:56:05;;;;;;;1.50;1.50;;;27.10;65.40;;;;;;10495608;28;20219;-82
2022/07/12 09:01:09;;;;;;;2.33;1.67;;;27.80;64.00;;;;;;10529235;28;20305;-82
2022/07/12 09:06:12;;;;;;;1.60;1.50;;;28.30;60.50;;;;;;10506333;28;20212;-82
2022/07/12 09:11:17;;;;;;;1.70;1.60;;;28.70;59.50;;;;;;10529665;28;20230;-82
2022/07/12 09:16:23;;;;;;;1.53;1.53;;;29.00;59.20;;;;;;10509807;28;20305;-79
2022/07/12 09:21:27;;;;;;;2.10;1.60;;;29.40;60.80;;;;;;10514308;28;20220;-81
2022/07/12 09:26:32;;;;;;;1.50;1.50;;;30.00;57.90;;;;;;10515089;28;20245;-82
2022/07/12 09:36:59;;;;;;;1.93;1.40;;;31.10;57.30;;;;;;10493347;28;20240;-83
2022/07/12 09:42:02;;;;;;;1.43;1.43;;;31.70;55.30;;;;;;10510473;28;20227;-81
2022/07/12 09:47:13;;;;;;;1.20;1.20;;;32.10;54.50;;;;;;10499960;28;20259;-81
2022/07/12 09:52:21;;;;;;;1.70;1.60;;;32.50;52.60;;;;;;10528612;28;20254;-82
2022/07/12 09:57:32;;;;;;;2.20;1.33;;;32.60;52.20;;;;;;10528699;28;20220;-82
2022/07/12 10:02:36;;;;;;;1.87;1.77;;;32.60;52.70;;;;;;10541091;28;20215;-82
2022/07/12 10:07:39;;;;;;;1.40;1.30;;;33.10;52.10;;;;;;10537234;28;20311;-82
2022/07/12 10:12:42;;;;;;;1.70;1.60;;;33.80;51.40;;;;;;10534517;28;20246;-82
2022/07/12 10:17:53;;;;;;;2.80;1.57;;;34.40;50.80;;;;;;10533029;28;20226;-82
2022/07/12 10:22:56;;;;;;;2.73;1.33;;;34.30;49.10;;;;;;10533191;28;20219;-81
2022/07/12 10:28:00;;;;;;;1.83;1.73;;;34.00;49.60;;;;;;10546694;28;20215;-82
2022/07/12 10:33:09;;;;;;;1.33;1.23;;;33.40;49.10;;;;;;10547108;28;20196;-80
2022/07/12 10:38:21;;;;;;;1.87;1.77;;;32.10;50.80;;;;;;10519320;28;20250;-81
2022/07/12 10:48:43;;;;;;;1.70;1.60;;;29.70;53.50;;;;;;10536365;28;20227;-79
2022/07/12 10:53:48;;;;;;;1.23;0.87;;;28.80;54.00;;;;;;10527519;28;20649;-79
2022/07/12 10:58:53;;;;;;;1.73;1.63;;;28.10;55.90;;;;;;10505245;28;20205;-79
2022/07/12 11:03:57;;;;;;;1.67;1.57;;;27.60;57.30;;;;;;10536096;28;20224;-80
2022/07/12 11:09:01;;;;;;;2.33;1.67;;;27.10;57.70;;;;;;10523621;28;20231;-80
2022/07/12 11:14:04;;;;;;;1.50;1.50;;;26.70;58.50;;;;;;10540200;28;20238;-82
2022/07/12 11:19:08;;;;;;;1.30;1.20;;;26.40;59.50;;;;;;10542294;28;20200;-83
2022/07/12 11:24:21;;;;;;;2.53;1.23;;;26.10;59.40;;;;;;10545131;28;20322;-82
2022/07/12 11:29:25;;;;;;;1.70;1.60;;;25.80;60.30;;;;;;10536761;28;20195;-77
2022/07/12 11:34:28;;;;;;;1.57;1.57;;;25.60;61.40;;;;;;10526556;28;20209;-81
2022/07/12 11:39:34;;;;;;;1.80;1.00;;;25.50;60.80;;;;;;10510644;28;20266;-79
2022/07/12 11:44:43;;;;;;;1.80;1.70;;;25.40;61.50;;;;;;10498818;28;20274;-81
2022/07/12 11:49:48;;;;;;;1.60;1.60;;;25.30;61.20;;;;;;10501381;28;20208;-82
2022/07/12 11:54:51;;;;;;;1.67;1.57;;;25.10;62.00;;;;;;10503903;28;20216;-78
2022/07/12 11:59:53;;;;;;;1.27;1.27;;;25.10;63.20;;;;;;10521268;28;20278;-78
2022/07/12 12:04:57;;;;;;;1.57;1.50;;;25.10;62.90;;;;;;10517009;28;20247;-78
2022/07/12 12:10:00;;;;;;;1.20;1.20;;;25.00;62.80;;;;;;10525980;28;20229;-78
2022/07/12 12:15:04;;;;;;;2.00;1.87;;;25.00;62.10;;;;;;10516579;28;20225;-79
2022/07/12 12:20:13;;;;;;;3.37;1.00;;;25.00;62.30;;;;;;10496082;28;20203;-78
2022/07/12 12:25:16;;;;;;;1.50;1.50;;;25.00;61.30;;;;;;10503948;28;20282;-79
2022/07/12 12:30:18;;;;;;;1.10;1.10;;;25.00;60.20;;;;;;10520085;28;20199;-78
2022/07/12 12:35:24;;;;;;;1.27;1.27;;;24.90;59.40;;;;;;10536157;28;20227;-79
2022/07/12 12:40:29;;;;;;;1.67;1.57;;;24.90;61.00;;;;;;10514711;28;20222;-78
2022/07/12 12:45:31;;;;;;;1.40;1.40;;;24.90;61.50;;;;;;10549106;22;20224;-80
2022/07/12 12:50:44;;;;;;;1.47;1.47;;;24.90;61.80;;;;;;10537370;28;20207;-81
2022/07/12 12:55:48;;;;;;;1.50;1.40;;;25.00;61.60;;;;;;10537197;28;20564;-81
2022/07/12 13:00:51;;;;;;;1.40;1.40;;;25.00;62.00;;;;;;10538146;28;20216;-81
2022/07/12 13:05:55;;;;;;;1.60;1.50;;;25.00;62.10;;;;;;10537701;28;20219;-81
2022/07/12 13:16:17;;;;;;;1.40;1.40;;;25.10;61.50;;;;;;10517800;28;20683;-80
2022/07/12 13:21:20;;;;;;;1.40;1.30;;;25.10;61.20;;;;;;10549912;28;20690;-81
2022/07/12 13:26:23;;;;;;;1.63;1.63;;;25.10;60.30;;;;;;10549531;28;20223;-80
2022/07/12 13:31:26;;;;;;;1.80;1.63;;;25.10;61.10;;;;;;10534064;28;20203;-81
2022/07/12 13:36:29;;;;;;;1.60;1.50;;;25.10;62.00;;;;;;10545653;28;20220;-81
2022/07/12 13:41:31;;;;;;;1.40;1.40;;;25.10;60.20;;;;;;10544431;28;20311;-81
2022/07/12 13:46:33;;;;;;;2.97;1.30;;;25.10;60.30;;;;;;10547752;28;20231;-81
2022/07/12 13:51:37;;;;;;;1.67;1.60;;;25.10;61.10;;;;;;10552530;28;20215;-80
2022/07/12 13:56:40;;;;;;;1.50;1.40;;;25.10;60.70;;;;;;10549557;28;20219;-81
2022/07/12 14:01:43;;;;;;;1.57;1.40;;;25.10;61.50;;;;;;10545635;28;20224;-81
2022/07/12 14:06:47;;;;;;;1.20;1.10;;;25.20;62.10;;;;;;10541755;28;20680;-81
2022/07/12 14:11:49;;;;;;;2.20;1.60;;;25.20;61.20;;;;;;10545087;28;20196;-81
2022/07/12 14:16:51;;;;;;;1.50;1.50;;;25.30;59.90;;;;;;10521695;28;20224;-81
2022/07/12 14:21:55;;;;;;;1.83;1.63;;;25.40;60.40;;;;;;10548008;28;20223;-81
2022/07/12 14:26:57;;;;;;;1.80;1.70;;;25.40;60.50;;;;;;10548474;28;20388;-81
2022/07/12 14:32:01;;;;;;;1.60;1.50;;;25.40;61.10;;;;;;10546398;28;20201;-81
2022/07/12 14:37:04;;;;;;;1.43;1.33;;;25.40;58.80;;;;;;10537616;28;20236;-81
2022/07/12 14:42:06;;;;;;;1.57;1.20;;;25.30;59.40;;;;;;10523175;28;20271;-80
2022/07/12 14:47:49;;;;;;;1.03;1.03;;;25.30;60.30;;;;;;10522480;28;20221;-81
2022/07/12 14:52:53;;;;;;;1.60;1.60;;;25.30;60.50;;;;;;10537960;28;20184;-81
2022/07/12 14:57:55;;;;;;;1.93;1.50;;;25.20;62.90;;;;;;10544164;28;20211;-81
2022/07/12 15:02:59;;;;;;;1.80;1.70;;;25.10;61.70;;;;;;10534794;28;20798;-81
2022/07/12 15:08:02;;;;;;;1.10;1.00;;;25.20;61.10;;;;;;10524364;28;20219;-81
2022/07/12 15:13:05;;;;;;;1.20;1.20;;;25.20;62.40;;;;;;10527703;28;20680;-81
2022/07/12 15:18:07;;;;;;;0.97;0.97;;;25.10;63.10;;;;;;10529328;28;20311;-81
2022/07/12 15:23:10;;;;;;;1.57;1.47;;;25.10;60.80;;;;;;10539541;28;20220;-81
2022/07/12 15:28:13;;;;;;;2.37;1.73;;;25.10;61.40;;;;;;10544569;28;20220;-81
2022/07/12 15:33:15;;;;;;;1.50;1.40;;;25.10;61.70;;;;;;10549128;28;20506;-81
2022/07/12 15:38:18;;;;;;;1.50;1.40;;;25.10;61.90;;;;;;10545111;28;20250;-81
2022/07/12 15:43:20;;;;;;;1.33;1.23;;;25.20;60.20;;;;;;10547215;28;20580;-81
2022/07/12 15:48:22;;;;;;;1.43;1.33;;;25.20;59.20;;;;;;10540823;28;20227;-81
2022/07/12 15:53:27;;;;;;;1.83;1.73;;;25.20;60.20;;;;;;10542729;28;20284;-81
2022/07/12 15:58:31;;;;;;;1.57;1.30;;;25.30;59.50;;;;;;10541647;28;20220;-81
2022/07/12 16:03:33;;;;;;;1.40;1.40;;;25.30;59.80;;;;;;10525608;28;20215;-81
2022/07/12 16:08:37;;;;;;;1.20;1.00;;;25.30;59.20;;;;;;10521037;28;20764;-80
2022/07/12 16:13:39;;;;;;;4.67;1.77;;;25.30;59.40;;;;;;10496679;28;20208;-81
2022/07/12 16:18:41;;;;;;;1.60;1.50;;;25.30;58.50;;;;;;10540145;28;20225;-81
2022/07/12 16:23:44;;;;;;;1.63;1.53;;;25.30;59.20;;;;;;10540805;28;20252;-81
2022/07/12 16:28:47;;;;;;;1.27;1.27;;;25.30;59.70;;;;;;10537931;28;20663;-81
2022/07/12 16:33:49;;;;;;;1.23;1.23;;;25.30;58.90;;;;;;10529072;28;20201;-81
2022/07/12 16:38:52;;;;;;;1.40;1.40;;;25.30;63.90;;;;;;10559474;28;20202;-81
2022/07/12 16:43:55;;;;;;;1.60;1.50;;;25.20;59.90;;;;;;10563488;28;20710;-81
2022/07/12 16:48:57;;;;;;;1.37;1.37;;;25.20;59.10;;;;;;10564272;28;20679;-82
2022/07/12 16:54:00;;;;;;;1.30;1.30;;;25.20;59.20;;;;;;10551866;28;20207;-81
2022/07/12 16:59:03;;;;;;;1.30;1.30;;;25.30;59.80;;;;;;10559914;28;20264;-81
2022/07/12 17:04:05;;;;;;;1.50;1.50;;;25.20;61.10;;;;;;10564019;28;20272;-80
2022/07/12 17:09:09;;;;;;;1.00;1.00;;;25.20;61.10;;;;;;10548152;28;20235;-81
2022/07/12 17:14:11;;;;;;;1.70;1.70;;;25.20;59.10;;;;;;10543116;28;20224;-81
2022/07/12 17:19:15;;;;;;;1.50;1.50;;;25.20;63.40;;;;;;10563319;28;20207;-81
2022/07/12 17:24:18;;;;;;;1.80;1.70;;;25.30;59.20;;;;;;10553369;28;20247;-81
2022/07/12 17:29:20;;;;;;;1.47;1.37;;;25.40;58.70;;;;;;10555467;28;20671;-81
2022/07/12 17:34:36;;;;;;;2.00;1.90;;;25.40;62.50;;;;;;10554237;28;20219;-81
2022/07/12 17:39:44;;;;;;;1.90;1.80;;;25.30;59.30;;;;;;10549537;28;20200;-81
2022/07/12 17:44:48;;;;;;;1.90;1.80;;;25.20;61.80;;;;;;10557488;28;20224;-82
2022/07/12 17:49:50;;;;;;;1.97;1.87;;;25.10;59.60;;;;;;10541333;28;20197;-81
2022/07/12 17:54:53;;;;;;;1.90;1.80;;;25.10;60.50;;;;;;10556314;28;20227;-81
2022/07/12 17:59:55;;;;;;;1.90;1.80;;;25.00;59.70;;;;;;10562911;28;20199;-81
2022/07/12 18:05:05;;;;;;;4.23;1.87;;;25.00;60.80;;;;;;10570176;28;20254;-81
2022/07/12 18:10:16;;;;;;;2.10;1.90;;;25.00;59.80;;;;;;10558613;28;20267;-81
2022/07/12 18:15:20;;;;;;;1.43;1.43;;;24.90;59.80;;;;;;10561278;28;20224;-82
2022/07/12 18:20:22;;;;;;;1.73;1.63;;;24.90;59.80;;;;;;10567890;28;20206;-82
2022/07/12 18:25:26;;;;;;;1.90;1.80;;;24.90;59.60;;;;;;10544522;28;20297;-82
2022/07/12 18:30:30;;;;;;;2.80;2.70;;;24.80;63.00;;;;;;10550385;28;20192;-81
2022/07/12 18:35:33;;;;;;;2.07;1.97;;;24.70;67.20;;;;;;10546574;28;20223;-82
2022/07/12 18:40:36;;;;;;;1.50;1.50;;;24.60;62.10;;;;;;10527631;28;20210;-82
2022/07/12 18:45:39;;;;;;;2.80;2.70;;;24.50;63.30;;;;;;10558687;22;20246;-79
2022/07/12 18:50:41;;;;;;;2.27;2.17;;;24.40;64.70;;;;;;10550004;28;20242;-80
2022/07/12 18:55:45;;;;;;;3.43;2.70;;;24.30;64.60;;;;;;10545110;28;20222;-79
2022/07/12 19:00:47;;;;;;;2.57;2.37;;;24.30;65.60;;;;;;10544822;28;20279;-79
2022/07/12 19:05:49;;;;;;;2.00;1.90;;;24.10;65.40;;;;;;10509379;28;20285;-80
2022/07/12 19:10:54;;;;;;;2.40;2.20;;;24.00;66.40;;;;;;10503477;28;20294;-80
2022/07/12 19:15:57;;;;;;;2.23;2.13;;;23.90;66.30;;;;;;10512561;28;20327;-80
2022/07/12 19:21:00;;;;;;;2.30;2.20;;;23.70;66.60;;;;;;10504852;28;20267;-79
2022/07/12 19:26:06;;;;;;;2.00;1.90;;;23.70;67.00;;;;;;10498348;28;20695;-79
2022/07/12 19:31:13;;;;;;;2.80;2.20;;;23.50;66.80;;;;;;10500839;28;20602;-80
2022/07/12 19:36:18;;;;;;;2.33;2.00;;;23.50;66.80;;;;;;10500796;28;20216;-81
2022/07/12 19:41:26;;;;;;;1.90;1.80;;;23.40;67.10;;;;;;10490713;28;20249;-79
2022/07/12 19:46:29;;;;;;;2.20;2.10;;;23.30;66.80;;;;;;10531481;28;20263;-79
2022/07/12 19:51:33;;;;;;;2.17;2.07;;;23.20;67.00;;;;;;10523439;28;20633;-79
2022/07/12 19:56:40;;;;;;;2.57;2.40;;;23.20;67.90;;;;;;10533730;28;20255;-78
2022/07/12 20:01:44;;;;;;;2.10;2.00;;;23.10;68.70;;;;;;10533281;28;20579;-79
2022/07/12 20:06:47;;;;;;;2.23;2.13;;;23.00;68.00;;;;;;10521766;28;20771;-79
2022/07/12 20:11:54;;;;;;;2.23;2.13;;;22.90;67.00;;;;;;10524338;28;20288;-78
2022/07/12 20:17:00;;;;;;;2.27;2.17;;;22.90;66.70;;;;;;10513633;28;20224;-79
2022/07/12 20:22:04;;;;;;;2.23;2.13;;;22.80;66.50;;;;;;10527022;28;20671;-79
2022/07/12 20:27:08;;;;;;;2.50;2.40;;;22.80;67.10;;;;;;10530637;28;20649;-78
2022/07/12 20:32:11;;;;;;;2.53;2.43;;;22.70;68.40;;;;;;10534248;28;20202;-79
2022/07/12 20:37:15;;;;;;;2.40;2.30;;;22.70;69.40;;;;;;10521051;28;20229;-79
2022/07/12 20:42:20;;;;;;;2.70;2.50;;;22.60;69.80;;;;;;10529720;28;20216;-79
2022/07/12 20:47:24;;;;;;;2.60;2.50;;;22.50;68.80;;;;;;10534657;28;20232;-79
2022/07/12 20:52:28;;;;;;;2.63;2.43;;;22.40;69.40;;;;;;10534079;28;20294;-79
2022/07/12 20:57:31;;;;;;;2.13;2.03;;;22.40;69.30;;;;;;10534336;28;20719;-79
2022/07/12 21:02:33;;;;;;;2.30;2.20;;;22.30;69.50;;;;;;10527015;28;20274;-79
2022/07/12 21:07:36;;;;;;;2.20;2.10;;;22.30;70.20;;;;;;10526839;28;20254;-79
2022/07/12 21:12:39;;;;;;;2.60;2.50;;;22.30;72.40;;;;;;10531288;28;20195;-79
2022/07/12 21:17:44;;;;;;;2.30;2.20;;;22.20;74.20;;;;;;10532192;28;20244;-79
2022/07/12 21:28:04;;;;;;;2.27;2.17;;;22.10;71.90;;;;;;10520451;28;20227;-78
2022/07/12 21:33:06;;;;;;;2.30;2.20;;;22.10;71.60;;;;;;10523305;28;20192;-79
2022/07/12 21:38:09;;;;;;;2.20;2.00;;;22.00;71.30;;;;;;10511508;28;20223;-78
2022/07/12 21:43:13;;;;;;;2.60;2.50;;;22.00;73.70;;;;;;10519332;28;21004;-79
2022/07/12 21:48:15;;;;;;;2.33;2.20;;;21.90;71.40;;;;;;10529530;28;20254;-78
2022/07/12 21:53:17;;;;;;;2.40;2.30;;;21.90;71.30;;;;;;10527729;28;20287;-79
2022/07/12 21:58:20;;;;;;;2.37;2.17;;;21.90;71.80;;;;;;10496551;28;20244;-78
2022/07/12 22:03:23;;;;;;;2.20;2.10;;;21.80;71.40;;;;;;10509516;28;20523;-79
2022/07/12 22:08:25;;;;;;;3.07;2.80;;;21.80;71.60;;;;;;10510242;28;20223;-79
2022/07/12 22:13:28;;;;;;;2.30;2.20;;;21.70;73.00;;;;;;10539842;28;20291;-80
2022/07/12 22:18:31;;;;;;;3.00;2.80;;;21.70;74.60;;;;;;10519886;28;20298;-79
2022/07/12 22:23:33;;;;;;;3.10;2.90;;;21.60;74.20;;;;;;10527357;28;20590;-80
2022/07/12 22:28:36;;;;;;;2.70;2.60;;;21.60;73.90;;;;;;10520763;28;20284;-77
2022/07/12 22:33:38;;;;;;;2.73;2.53;;;21.60;74.20;;;;;;10516001;28;20196;-81
2022/07/12 22:38:41;;;;;;;2.50;2.40;;;21.50;73.80;;;;;;10529381;28;20215;-81
2022/07/12 22:43:44;;;;;;;2.80;2.60;;;21.40;73.80;;;;;;10539546;28;20219;-79
2022/07/12 22:48:46;;;;;;;2.60;2.50;;;21.40;74.00;;;;;;10544741;28;20290;-81
2022/07/12 22:53:48;;;;;;;3.00;2.70;;;21.40;73.70;;;;;;10534057;28;20274;-80
2022/07/12 22:58:52;;;;;;;2.23;2.13;;;21.40;74.90;;;;;;10531820;28;20246;-81
2022/07/12 23:03:54;;;;;;;2.63;2.53;;;21.30;74.20;;;;;;10530478;28;20227;-77
2022/07/12 23:08:56;;;;;;;5.70;5.30;;;21.30;73.70;;;;;;10530984;28;20226;-80
2022/07/12 23:14:00;;;;;;;5.83;3.47;;;21.20;73.00;;;;;;10525391;28;20398;-81
2022/07/12 23:19:02;;;;;;;2.27;2.17;;;21.10;73.10;;;;;;10533484;28;20234;-79
2022/07/12 23:24:05;;;;;;;2.60;2.40;;;21.10;75.40;;;;;;10525074;28;20216;-78
2022/07/12 23:29:08;;;;;;;2.40;2.00;;;21.00;75.00;;;;;;10531591;28;20523;-79
2022/07/12 23:34:10;;;;;;;2.40;2.30;;;21.00;75.40;;;;;;10535311;28;20695;-80
2022/07/12 23:39:12;;;;;;;2.17;2.07;;;21.00;74.80;;;;;;10536010;28;20252;-77
2022/07/12 23:44:16;;;;;;;2.40;2.30;;;20.90;76.30;;;;;;10519230;28;20694;-80
2022/07/12 23:49:18;;;;;;;2.33;2.23;;;20.90;76.20;;;;;;10529701;28;20279;-80
2022/07/12 23:54:20;;;;;;;2.40;2.30;;;20.80;75.10;;;;;;10536403;28;20206;-79
2022/07/12 23:59:23;;;;;;;2.20;2.10;;;20.80;75.30;;;;;;10525287;28;20342;-79
